createdAt,value
2023-01-21T00:01:13.070Z,15.28
2023-01-21T00:03:41.606Z,14.58
2023-01-21T00:06:09.974Z,15.35
2023-01-21T00:08:38.203Z,15.83
2023-01-21T00:11:10.102Z,15.40
2023-01-21T00:13:38.364Z,16.15
2023-01-21T00:16:06.955Z,15.93
2023-01-21T00:18:35.534Z,16.12
2023-01-21T00:21:04.074Z,16.12
2023-01-21T00:23:32.284Z,16.80
2023-01-21T00:26:04.531Z,17.27
2023-01-21T00:31:01.571Z,16.52
2023-01-21T00:33:30.424Z,17.23
2023-01-21T00:36:00.192Z,18.00
2023-01-21T00:38:28.771Z,19.25
2023-01-21T00:41:02.992Z,18.20
2023-01-21T00:43:31.561Z,19.10
2023-01-21T00:45:59.883Z,18.85
2023-01-21T00:48:28.356Z,18.95
2023-01-21T00:50:59.083Z,18.10
2023-01-21T00:53:28.907Z,17.25
2023-01-21T00:56:01.477Z,18.15
2023-01-21T00:58:30.072Z,18.05
2023-01-21T01:01:02.728Z,18.00
2023-01-21T01:03:31.304Z,17.57
2023-01-21T01:06:04.064Z,19.30
2023-01-21T01:08:32.747Z,19.35
2023-01-21T01:11:01.174Z,19.25
2023-01-21T01:13:29.666Z,17.95
2023-01-21T01:15:58.487Z,19.70
2023-01-21T01:18:27.566Z,19.50
2023-01-21T01:20:56.183Z,20.45
2023-01-21T01:23:24.378Z,19.65
2023-01-21T01:25:56.635Z,18.92
2023-01-21T01:30:52.635Z,18.45
2023-01-21T01:33:21.078Z,19.12
2023-01-21T01:35:49.704Z,19.07
2023-01-21T01:38:19.961Z,19.65
2023-01-21T01:40:49.113Z,19.87
2023-01-21T01:43:19.085Z,19.82
2023-01-21T01:45:48.360Z,19.85
2023-01-21T01:48:20.839Z,19.92
2023-01-21T01:50:49.420Z,20.72
2023-01-21T01:53:19.155Z,22.60
2023-01-21T01:55:47.847Z,22.17
2023-01-21T01:58:17.787Z,20.95
2023-01-21T02:00:46.481Z,22.90
2023-01-21T02:03:33.629Z,22.42
2023-01-21T02:06:02.601Z,22.55
2023-01-21T02:08:32.803Z,21.33
2023-01-21T02:11:02.469Z,21.25
2023-01-21T02:13:31.540Z,22.90
2023-01-21T02:16:07.156Z,23.25
2023-01-21T02:18:51.932Z,21.65
2023-01-21T02:21:25.036Z,22.10
2023-01-21T02:23:54.924Z,21.85
2023-01-21T02:26:24.651Z,21.20
2023-01-21T02:29:01.728Z,22.37
2023-01-21T02:31:39.608Z,23.15
2023-01-21T02:34:17.739Z,22.65
2023-01-21T02:36:53.649Z,23.27
2023-01-21T02:39:31.759Z,22.77
2023-01-21T02:42:05.920Z,23.85
2023-01-21T02:44:41.161Z,22.77
2023-01-21T02:47:13.096Z,22.82
2023-01-21T02:49:43.163Z,26.68
2023-01-21T02:52:24.338Z,24.85
2023-01-21T02:54:57.042Z,24.10
2023-01-21T02:57:35.985Z,23.02
2023-01-21T03:00:08.539Z,22.20
2023-01-21T03:02:38.287Z,23.25
2023-01-21T03:05:15.758Z,21.77
2023-01-21T03:08:02.507Z,22.37
2023-01-21T03:10:36.844Z,24.35
2023-01-21T03:13:22.165Z,22.82
2023-01-21T03:16:11.494Z,22.00
2023-01-21T03:18:45.759Z,21.30
2023-01-21T03:21:16.171Z,21.85
2023-01-21T03:23:46.632Z,22.35
2023-01-21T03:26:17.203Z,21.07
2023-01-21T03:28:49.597Z,21.20
2023-01-21T03:31:20.082Z,20.32
2023-01-21T03:33:51.965Z,21.17
2023-01-21T03:36:22.707Z,21.77
2023-01-21T03:38:53.499Z,21.97
2023-01-21T03:41:23.203Z,22.45
2023-01-21T03:43:52.590Z,22.55
2023-01-21T03:46:25.282Z,21.82
2023-01-21T03:49:04.821Z,20.52
2023-01-21T03:51:35.490Z,21.48
2023-01-21T03:54:04.699Z,21.73
2023-01-21T03:56:33.789Z,21.00
2023-01-21T03:59:02.971Z,20.57
2023-01-21T04:01:41.512Z,21.35
2023-01-21T04:04:11.058Z,20.27
2023-01-21T04:06:41.666Z,20.95
2023-01-21T04:09:10.429Z,22.30
2023-01-21T04:11:38.648Z,21.52
2023-01-21T04:14:07.912Z,21.68
2023-01-21T04:16:37.243Z,22.65
2023-01-21T04:19:16.390Z,22.20
2023-01-21T04:21:46.766Z,19.60
2023-01-21T04:24:17.190Z,22.77
2023-01-21T04:26:46.549Z,21.35
2023-01-21T04:29:14.770Z,20.52
2023-01-21T04:31:43.059Z,22.13
2023-01-21T04:34:13.591Z,20.92
2023-01-21T04:36:42.134Z,21.60
2023-01-21T04:39:11.434Z,22.10
2023-01-21T04:41:40.033Z,20.23
2023-01-21T04:44:08.658Z,23.45
2023-01-21T04:46:37.198Z,21.50
2023-01-21T04:49:05.894Z,22.93
2023-01-21T04:51:34.555Z,22.02
2023-01-21T04:54:03.210Z,21.30
2023-01-21T04:56:31.850Z,20.57
2023-01-21T04:59:00.106Z,21.20
2023-01-21T05:01:28.818Z,21.00
2023-01-21T05:03:57.455Z,21.52
2023-01-21T05:06:26.029Z,21.00
2023-01-21T05:08:54.566Z,22.32
2023-01-21T05:11:23.263Z,20.88
2023-01-21T05:13:51.821Z,22.95
2023-01-21T05:16:20.368Z,20.57
2023-01-21T05:18:48.916Z,22.05
2023-01-21T05:21:17.119Z,20.52
2023-01-21T05:23:45.660Z,22.05
2023-01-21T05:26:14.286Z,22.50
2023-01-21T05:28:42.805Z,21.62
2023-01-21T05:31:11.568Z,21.37
2023-01-21T05:33:40.225Z,21.60
2023-01-21T05:36:10.314Z,21.27
2023-01-21T05:38:39.046Z,21.10
2023-01-21T05:41:07.597Z,23.22
2023-01-21T05:43:36.207Z,21.97
2023-01-21T05:46:04.913Z,23.77
2023-01-21T05:48:33.476Z,24.32
2023-01-21T05:51:02.064Z,29.63
2023-01-21T05:53:30.262Z,29.77
2023-01-21T05:56:00.111Z,28.10
2023-01-21T05:58:29.112Z,25.12
2023-01-21T06:01:01.153Z,26.02
2023-01-21T06:03:29.749Z,24.35
2023-01-21T06:05:57.943Z,22.73
2023-01-21T06:08:26.517Z,24.87
2023-01-21T06:10:56.222Z,23.62
2023-01-21T06:13:25.293Z,23.65
2023-01-21T06:15:57.915Z,24.37
2023-01-21T06:18:27.648Z,26.60
2023-01-21T06:20:57.806Z,23.35
2023-01-21T06:23:26.328Z,22.75
2023-01-21T06:25:54.955Z,22.05
2023-01-21T06:28:23.507Z,22.22
2023-01-21T06:30:52.155Z,22.10
2023-01-21T06:33:20.719Z,20.85
2023-01-21T06:35:49.323Z,21.52
2023-01-21T06:38:17.884Z,22.45
2023-01-21T06:40:46.409Z,20.72
2023-01-21T06:43:14.967Z,23.62
2023-01-21T06:45:44.071Z,22.35
2023-01-21T06:48:12.623Z,23.02
2023-01-21T06:50:41.176Z,22.87
2023-01-21T06:53:09.737Z,25.20
2023-01-21T06:55:38.258Z,23.40
2023-01-21T06:58:06.840Z,24.30
2023-01-21T07:00:35.383Z,24.30
2023-01-21T07:03:04.022Z,23.80
2023-01-21T07:05:32.654Z,23.52
2023-01-21T07:08:01.244Z,24.35
2023-01-21T07:10:29.802Z,23.70
2023-01-21T07:12:58.321Z,25.70
2023-01-21T07:15:28.618Z,25.32
2023-01-21T07:17:57.258Z,27.25
2023-01-21T07:20:25.882Z,26.45
2023-01-21T07:22:54.437Z,27.10
2023-01-21T07:25:23.035Z,27.20
2023-01-21T07:27:51.579Z,28.50
2023-01-21T07:30:20.989Z,27.93
2023-01-21T07:32:49.544Z,28.10
2023-01-21T07:35:18.494Z,26.45
2023-01-21T07:37:47.179Z,27.25
2023-01-21T07:40:15.852Z,29.30
2023-01-21T07:42:44.432Z,26.65
2023-01-21T07:45:12.654Z,29.67
2023-01-21T07:47:41.215Z,30.68
2023-01-21T07:50:10.405Z,32.85
2023-01-21T07:52:38.960Z,31.05
2023-01-21T07:55:08.152Z,29.18
2023-01-21T07:57:36.762Z,29.67
2023-01-21T08:00:05.762Z,31.40
2023-01-21T08:02:34.425Z,31.57
2023-01-21T08:05:03.080Z,32.53
2023-01-21T08:07:31.335Z,31.60
2023-01-21T08:09:59.565Z,31.30
2023-01-21T08:12:27.790Z,29.98
2023-01-21T08:14:56.019Z,27.70
2023-01-21T08:17:24.231Z,29.67
2023-01-21T08:19:52.461Z,35.92
2023-01-21T08:22:20.672Z,26.97
2023-01-21T08:24:48.908Z,26.57
2023-01-21T08:27:17.135Z,25.32
2023-01-21T08:29:46.699Z,26.02
2023-01-21T08:32:15.394Z,25.88
2023-01-21T08:34:45.293Z,24.40
2023-01-21T08:37:13.545Z,26.48
2023-01-21T08:39:41.783Z,27.50
2023-01-21T08:42:10.074Z,24.75
2023-01-21T08:44:38.277Z,25.62
2023-01-21T08:47:06.503Z,25.62
2023-01-21T08:49:34.753Z,25.40
2023-01-21T08:52:03.154Z,24.95
2023-01-21T08:54:31.496Z,25.60
2023-01-21T08:56:59.697Z,25.77
2023-01-21T08:59:29.785Z,24.95
2023-01-21T09:01:58.051Z,25.85
2023-01-21T09:04:26.253Z,25.82
2023-01-21T09:06:54.473Z,24.45
2023-01-21T09:09:22.684Z,27.35
2023-01-21T09:11:52.361Z,26.10
2023-01-21T09:14:21.335Z,25.35
2023-01-21T09:16:50.165Z,25.92
2023-01-21T09:19:18.460Z,26.77
2023-01-21T09:21:46.740Z,26.82
2023-01-21T09:24:15.027Z,26.80
2023-01-21T09:26:47.075Z,26.02
2023-01-21T09:29:15.738Z,25.60
2023-01-21T09:31:44.449Z,23.50
2023-01-21T09:34:13.648Z,22.10
2023-01-21T09:36:42.212Z,22.93
2023-01-21T09:39:10.418Z,22.90
2023-01-21T09:41:40.177Z,24.98
2023-01-21T09:44:09.945Z,25.05
2023-01-21T09:46:56.238Z,26.23
2023-01-21T09:49:41.361Z,25.23
2023-01-21T09:52:17.175Z,24.63
2023-01-21T09:54:45.485Z,23.83
2023-01-21T09:57:27.278Z,25.45
2023-01-21T10:00:04.196Z,24.23
2023-01-21T10:02:36.852Z,24.27
2023-01-21T10:05:22.844Z,24.02
2023-01-21T10:07:52.663Z,21.70
2023-01-21T10:10:38.890Z,23.45
2023-01-21T10:13:11.331Z,22.95
2023-01-21T10:18:18.018Z,23.40
2023-01-21T10:20:53.992Z,24.55
2023-01-21T10:23:26.744Z,23.98
2023-01-21T10:25:55.720Z,23.12
2023-01-21T10:28:25.314Z,23.35
2023-01-21T10:30:54.899Z,25.43
2023-01-21T10:33:24.333Z,23.12
2023-01-21T10:36:09.141Z,24.43
2023-01-21T10:38:41.572Z,22.80
2023-01-21T10:41:11.465Z,22.82
2023-01-21T10:43:41.206Z,21.02
2023-01-21T10:46:13.913Z,24.43
2023-01-21T10:48:58.671Z,22.25
2023-01-21T10:51:28.421Z,23.52
2023-01-21T10:54:04.125Z,23.45
2023-01-21T10:56:42.874Z,21.65
2023-01-21T10:59:15.304Z,22.73
2023-01-21T11:04:15.444Z,23.05
2023-01-21T11:06:44.663Z,21.20
2023-01-21T11:09:14.387Z,21.42
2023-01-21T11:11:42.856Z,20.60
2023-01-21T11:14:11.072Z,21.52
2023-01-21T11:16:49.599Z,23.77
2023-01-21T11:19:29.627Z,22.42
2023-01-21T11:22:04.107Z,21.75
2023-01-21T11:24:45.608Z,23.18
2023-01-21T11:27:24.401Z,22.67
2023-01-21T11:29:52.639Z,23.15
2023-01-21T11:32:21.855Z,22.10
2023-01-21T11:34:51.309Z,21.77
2023-01-21T11:37:21.051Z,22.27
2023-01-21T11:39:53.732Z,21.93
2023-01-21T11:42:23.885Z,22.60
2023-01-21T11:44:56.563Z,24.12
2023-01-21T11:47:38.014Z,22.40
2023-01-21T11:50:13.875Z,22.30
2023-01-21T11:52:42.195Z,22.37
2023-01-21T11:55:20.973Z,23.47
2023-01-21T11:57:53.407Z,23.87
2023-01-21T12:02:50.864Z,23.00
2023-01-21T12:05:34.917Z,22.00
2023-01-21T12:08:04.181Z,21.87
2023-01-21T12:10:39.725Z,21.75
2023-01-21T12:13:24.293Z,21.90
2023-01-21T12:15:57.071Z,22.87
2023-01-21T12:18:41.869Z,22.17
2023-01-21T12:21:27.838Z,21.15
2023-01-21T12:24:13.924Z,21.85
2023-01-21T12:26:45.338Z,22.10
2023-01-21T12:29:27.021Z,20.25
2023-01-21T12:32:02.549Z,21.73
2023-01-21T12:34:41.288Z,19.73
2023-01-21T12:37:13.965Z,20.65
2023-01-21T12:39:42.984Z,18.75
2023-01-21T12:42:29.187Z,19.82
2023-01-21T12:45:14.164Z,20.90
2023-01-21T12:47:46.924Z,20.23
2023-01-21T12:50:16.732Z,18.92
2023-01-21T12:52:52.477Z,19.27
2023-01-21T12:55:27.929Z,20.62
2023-01-21T12:57:57.775Z,19.32
2023-01-21T13:00:27.846Z,19.02
2023-01-21T13:03:03.813Z,17.20
2023-01-21T13:05:36.611Z,17.32
2023-01-21T13:08:22.904Z,16.37
2023-01-21T13:10:52.704Z,17.65
2023-01-21T13:13:22.524Z,16.87
2023-01-21T13:15:52.603Z,16.02
2023-01-21T13:18:22.493Z,16.15
2023-01-21T13:20:52.283Z,16.27
2023-01-21T13:23:36.896Z,15.48
2023-01-21T13:26:09.519Z,16.25
2023-01-21T13:28:41.996Z,17.20
2023-01-21T13:31:23.939Z,16.00
2023-01-21T13:34:11.642Z,17.37
2023-01-21T13:36:44.088Z,17.90
2023-01-21T13:41:53.063Z,16.70
2023-01-21T13:44:39.296Z,20.40
2023-01-21T13:47:09.133Z,17.73
2023-01-21T13:49:53.745Z,19.25
2023-01-21T13:52:29.477Z,19.27
2023-01-21T13:55:01.961Z,17.77
2023-01-21T13:59:59.350Z,18.70
2023-01-21T14:02:32.058Z,18.87
2023-01-21T14:05:16.995Z,18.32
2023-01-21T14:07:52.735Z,19.27
2023-01-21T14:10:31.464Z,18.85
2023-01-21T14:13:17.805Z,19.98
2023-01-21T14:15:56.463Z,17.75
2023-01-21T14:18:32.294Z,17.23
2023-01-21T14:21:02.102Z,24.15
2023-01-21T14:23:31.910Z,13.83
2023-01-21T14:26:04.397Z,19.95
2023-01-21T14:31:02.291Z,20.97
2023-01-21T14:33:32.326Z,21.15
2023-01-21T14:36:11.271Z,17.85
2023-01-21T14:38:52.809Z,16.95
2023-01-21T14:41:21.559Z,17.57
2023-01-21T14:43:50.956Z,17.48
2023-01-21T14:46:20.733Z,17.85
2023-01-21T14:49:02.108Z,18.82
2023-01-21T14:51:31.748Z,18.98
2023-01-21T14:54:18.241Z,18.62
2023-01-21T14:56:53.859Z,17.30
2023-01-21T14:59:29.760Z,17.70
2023-01-21T15:02:02.236Z,22.52
2023-01-21T15:06:59.795Z,21.07
2023-01-21T15:09:32.058Z,22.25
2023-01-21T15:12:02.131Z,19.05
2023-01-21T15:14:32.009Z,18.55
2023-01-21T15:17:00.375Z,20.12
2023-01-21T15:19:30.288Z,20.85
2023-01-21T15:22:03.060Z,19.05
2023-01-21T15:24:38.527Z,20.40
2023-01-21T15:27:22.495Z,19.02
2023-01-21T15:29:58.673Z,17.27
2023-01-21T15:32:31.558Z,18.35
2023-01-21T15:35:01.277Z,19.57
2023-01-21T15:37:31.003Z,20.77
2023-01-21T15:40:00.867Z,11.50
2023-01-21T15:42:39.635Z,17.32
2023-01-21T15:45:12.105Z,19.23
2023-01-21T15:50:09.502Z,17.67
2023-01-21T15:52:55.903Z,17.10
2023-01-21T15:55:31.509Z,16.62
2023-01-21T15:58:01.434Z,15.28
2023-01-21T16:00:34.284Z,14.93
2023-01-21T16:03:04.205Z,14.93
2023-01-21T16:05:36.762Z,13.60
2023-01-21T16:10:34.116Z,13.32
2023-01-21T16:13:06.869Z,14.18
2023-01-21T16:15:51.796Z,14.55
2023-01-21T16:18:33.879Z,13.70
2023-01-21T16:21:03.620Z,12.90
2023-01-21T16:23:35.372Z,12.35
2023-01-21T16:26:03.806Z,13.00
2023-01-21T16:28:46.463Z,14.93
2023-01-21T16:33:43.061Z,14.10
2023-01-21T16:36:13.032Z,13.43
2023-01-21T16:38:42.691Z,12.73
2023-01-21T16:41:15.466Z,11.75
2023-01-21T16:43:48.177Z,13.75
2023-01-21T16:46:18.350Z,13.93
2023-01-21T16:48:48.304Z,14.30
2023-01-21T16:51:21.089Z,13.38
2023-01-21T16:53:49.418Z,14.25
2023-01-21T16:56:28.253Z,13.88
2023-01-21T16:58:56.812Z,14.55
2023-01-21T17:01:26.744Z,12.55
2023-01-21T17:03:55.609Z,12.98
2023-01-21T17:06:31.708Z,12.60
2023-01-21T17:09:01.599Z,13.45
2023-01-21T17:11:31.355Z,12.20
2023-01-21T17:14:00.975Z,12.50
2023-01-21T17:16:33.531Z,12.45
2023-01-21T17:19:06.066Z,12.63
2023-01-21T17:21:38.566Z,12.25
2023-01-21T17:26:37.066Z,12.28
2023-01-21T17:29:09.975Z,10.70
2023-01-21T17:31:40.982Z,11.53
2023-01-21T17:34:10.951Z,11.12
2023-01-21T17:36:39.710Z,11.18
2023-01-21T17:39:08.741Z,11.10
2023-01-21T17:41:38.144Z,12.00
2023-01-21T17:44:08.022Z,9.23
2023-01-21T17:46:36.362Z,10.03
2023-01-21T17:49:11.022Z,9.93
2023-01-21T17:51:40.919Z,10.68
2023-01-21T17:54:10.731Z,11.15
2023-01-21T17:56:43.561Z,10.48
2023-01-21T17:59:33.091Z,10.80
2023-01-21T18:02:02.204Z,10.45
2023-01-21T18:04:30.588Z,11.45
2023-01-21T18:06:58.891Z,11.65
2023-01-21T18:09:28.239Z,11.93
2023-01-21T18:11:57.869Z,12.00
2023-01-21T18:14:26.663Z,11.65
2023-01-21T18:16:55.042Z,11.63
2023-01-21T18:19:33.677Z,11.50
2023-01-21T18:22:03.116Z,11.50
2023-01-21T18:24:31.494Z,11.43
2023-01-21T18:27:00.568Z,12.55
2023-01-21T18:29:30.187Z,12.13
2023-01-21T18:31:59.022Z,12.00
2023-01-21T18:34:28.920Z,11.15
2023-01-21T18:36:57.778Z,11.93
2023-01-21T18:39:26.116Z,12.40
2023-01-21T18:41:54.403Z,12.63
2023-01-21T18:44:22.699Z,13.15
2023-01-21T18:46:51.413Z,15.13
2023-01-21T18:49:20.347Z,13.00
2023-01-21T18:51:48.673Z,13.05
2023-01-21T18:54:18.102Z,12.82
2023-01-21T18:56:46.655Z,11.95
2023-01-21T18:59:16.314Z,13.70
2023-01-21T19:01:45.115Z,12.53
2023-01-21T19:04:15.616Z,11.80
2023-01-21T19:06:43.863Z,12.43
2023-01-21T19:09:22.759Z,11.88
2023-01-21T19:11:51.339Z,12.63
2023-01-21T19:14:19.686Z,13.60
2023-01-21T19:16:48.079Z,12.20
2023-01-21T19:19:19.513Z,13.03
2023-01-21T19:21:47.795Z,14.63
2023-01-21T19:24:16.061Z,13.88
2023-01-21T19:26:44.358Z,13.18
2023-01-21T19:29:14.183Z,13.45
2023-01-21T19:31:42.577Z,13.65
2023-01-21T19:34:11.039Z,14.95
2023-01-21T19:36:39.975Z,14.03
2023-01-21T19:39:09.829Z,13.83
2023-01-21T19:41:38.130Z,14.28
2023-01-21T19:44:06.466Z,15.28
2023-01-21T19:46:35.056Z,15.50
2023-01-21T19:49:04.904Z,15.38
2023-01-21T19:51:33.415Z,15.08
2023-01-21T19:54:01.668Z,14.45
2023-01-21T19:56:29.927Z,16.42
2023-01-21T19:58:58.206Z,16.48
2023-01-21T20:01:26.510Z,15.90
2023-01-21T20:04:00.674Z,15.55
2023-01-21T20:06:25.699Z,16.02
2023-01-21T20:08:54.138Z,18.65
2023-01-21T20:11:22.819Z,17.40
2023-01-21T20:13:51.329Z,17.92
2023-01-21T20:16:23.856Z,17.82
2023-01-21T20:18:53.921Z,18.17
2023-01-21T20:21:22.218Z,19.02
2023-01-21T20:23:50.507Z,17.82
2023-01-21T20:26:20.365Z,17.27
2023-01-21T20:28:50.295Z,18.42
2023-01-21T20:31:19.109Z,19.95
2023-01-21T20:33:47.401Z,18.37
2023-01-21T20:36:17.263Z,19.62
2023-01-21T20:38:45.566Z,20.23
2023-01-21T20:41:13.881Z,20.62
2023-01-21T20:43:42.238Z,20.68
2023-01-21T20:46:14.980Z,20.80
2023-01-21T20:48:44.386Z,21.30
2023-01-21T20:51:13.037Z,21.48
2023-01-21T20:53:41.408Z,21.65
2023-01-21T20:56:29.256Z,19.32
2023-01-21T20:58:57.645Z,23.12
2023-01-21T21:01:26.561Z,22.07
2023-01-21T21:03:54.821Z,23.83
2023-01-21T21:06:24.313Z,22.55
2023-01-21T21:08:52.710Z,21.85
2023-01-21T21:11:21.239Z,21.82
2023-01-21T21:13:51.833Z,21.77
2023-01-21T21:16:24.803Z,21.48
2023-01-21T21:18:53.109Z,20.15
2023-01-21T21:21:23.672Z,21.55
2023-01-21T21:23:52.142Z,20.37
2023-01-21T21:26:24.602Z,21.12
2023-01-21T21:31:22.450Z,21.65
2023-01-21T21:33:50.977Z,20.30
2023-01-21T21:36:20.244Z,21.30
2023-01-21T21:38:48.898Z,22.40
2023-01-21T21:41:35.830Z,20.60
2023-01-21T21:44:05.249Z,21.60
2023-01-21T21:46:51.067Z,22.98
2023-01-21T21:49:19.534Z,22.32
2023-01-21T21:51:47.871Z,22.60
2023-01-21T21:54:18.173Z,22.73
2023-01-21T21:56:47.057Z,23.15
2023-01-21T21:59:15.362Z,22.40
2023-01-21T22:01:44.269Z,24.18
2023-01-21T22:04:12.649Z,23.55
2023-01-21T22:06:40.935Z,23.15
2023-01-21T22:09:09.305Z,22.48
2023-01-21T22:11:37.623Z,22.40
2023-01-21T22:14:06.087Z,21.50
2023-01-21T22:16:34.710Z,21.15
2023-01-21T22:19:03.012Z,21.15
2023-01-21T22:21:33.147Z,22.35
2023-01-21T22:24:02.596Z,21.87
2023-01-21T22:26:31.127Z,22.05
2023-01-21T22:28:59.434Z,21.80
2023-01-21T22:31:29.622Z,22.80
2023-01-21T22:33:58.966Z,21.65
2023-01-21T22:36:29.412Z,22.42
2023-01-21T22:38:58.073Z,22.50
2023-01-21T22:41:26.549Z,22.02
2023-01-21T22:43:54.964Z,21.68
2023-01-21T22:46:24.730Z,22.05
2023-01-21T22:48:54.654Z,22.80
2023-01-21T22:51:23.602Z,21.35
2023-01-21T22:53:52.591Z,21.23
2023-01-21T22:56:25.328Z,22.27
2023-01-21T22:58:52.013Z,22.87
2023-01-21T23:01:21.521Z,22.87
2023-01-21T23:03:49.899Z,23.47
2023-01-21T23:06:18.599Z,23.83
2023-01-21T23:08:47.043Z,22.27
2023-01-21T23:11:16.297Z,22.10
2023-01-21T23:13:44.712Z,23.73
2023-01-21T23:16:14.582Z,23.77
2023-01-21T23:18:42.832Z,24.72
2023-01-21T23:21:12.630Z,29.95
2023-01-21T23:23:41.004Z,28.62
2023-01-21T23:26:10.649Z,24.77
2023-01-21T23:28:38.906Z,21.95
2023-01-21T23:31:11.964Z,21.68
2023-01-21T23:33:41.292Z,22.02
2023-01-21T23:36:11.246Z,21.50
2023-01-21T23:38:39.953Z,21.40
2023-01-21T23:41:09.431Z,17.92
2023-01-21T23:43:37.791Z,22.60
2023-01-21T23:46:06.747Z,21.75
2023-01-21T23:48:35.033Z,21.57
2023-01-21T23:51:03.847Z,22.07
2023-01-21T23:53:32.802Z,22.77
2023-01-21T23:56:05.013Z,21.37
2023-01-21T23:58:33.291Z,22.50
